Marceline, MO

2:24 PM CDT on August 21, 2014 (GMT -0500)
Barlow Back Yard | Change Station
CLOSE
Current Station
Personal Weather Station
Location: Hale, MO
Elevation: 755 ft
Nearby Weather Stations

Elev 755 ft 39.59 °N, 93.30 °W | Updated 12 minutes ago

Clear
Clear
95.9 °F
Feels Like 120 °F
N
3.2
Wind Variable Wind from ESE

Today
High -- | Low -- °F
--% Chance of Precip.
Yesterday
High -- | Low -- °F
Precip. -- in
6:29 AM 7:59 PM
Waning Crescent, 12% visible
Pressure 29.92 in
Visibility 10.0 miles
Clouds Clear
Heat Index 120 °F
Dew Point 82 °F
Humidity 64%
Rainfall 0.00 in
Snow Depth Not available.
UV 10 out of 12
Pollen 10.60 out of 12
Air Quality Not available.
Flu Activity Not available.
METAR KIRK 211855Z AUTO 23013G17KT 10SM CLR 32/23 A2994 RMK AO2 SLP131 T03170233

More Conditions Fewer Conditions

Pressure 29.92 in
Visibility 10.0 miles
Clouds Clear
Heat Index 120 °F
Dew Point 82 °F
Humidity 64%
Rainfall 0.00 in
Snow Depth Not available.
UV 10 out of 12
Pollen 10.60 out of 12
Air Quality Not available.
Flu Activity Not available.
METAR KIRK 211855Z AUTO 23013G17KT 10SM CLR 32/23 A2994 RMK AO2 SLP131 T03170233

More Conditions Fewer Conditions

10-Day Weather Forecast

Almanac

Astronomy

Aug. 21, 2014 Rise Set
Actual Time 6:29 AM CDT 7:59 PM CDT
Civil Twilight 6:01 AM CDT 8:27 PM CDT
Nautical Twilight 5:26 AM CDT 9:01 PM CDT
Astronomical Twilight 4:50 AM CDT 9:37 PM CDT
Moon 3:00 AM CDT 5:28 PM CDT
Length of Visible Light 14h 26m
Length of Day
13h 29m
Tomorrow will be 2m 23s shorter.
Waning Crescent, 12% of the Moon is Illuminated
Today
Waning Crescent
Aug 25
New
Sep 2
First Quarter
Sep 8
Full
Sep 15
Last Quarter

Today's Extremes

State Highs State Lows

Community

WunderPhotos

Upload Photos

1,746,008 photos uploaded!

WunderBlogs® & News

Nearby

Snow Depth

Station Depth Elevation
No new snow has been reported.

Earthquake Activity

City Distance Mag. Time & Date
No recent earthquake activity has been reported nearby.
Minimum magnitude displayed is 2.5.

Coastal Water Temperatures

Place Temperature
No Stations Reporting

Nearby Weather Stations